sensor_id;sensor_type;location;lat;lon;timestamp;P1;durP1;ratioP1;P2;durP2;ratioP2
19107;SDS011;9686;48.832;9.126;2022-12-07T00:00:39;7.23;;;5.90;;
19107;SDS011;9686;48.832;9.126;2022-12-07T00:03:05;9.27;;;6.33;;
19107;SDS011;9686;48.832;9.126;2022-12-07T00:05:30;9.10;;;6.20;;
19107;SDS011;9686;48.832;9.126;2022-12-07T00:07:55;7.03;;;5.67;;
19107;SDS011;9686;48.832;9.126;2022-12-07T00:10:20;9.07;;;6.20;;
19107;SDS011;9686;48.832;9.126;2022-12-07T00:12:46;6.97;;;5.50;;
19107;SDS011;9686;48.832;9.126;2022-12-07T00:15:11;7.37;;;5.67;;
19107;SDS011;9686;48.832;9.126;2022-12-07T00:17:36;7.00;;;5.67;;
19107;SDS011;9686;48.832;9.126;2022-12-07T00:20:02;7.07;;;5.77;;
19107;SDS011;9686;48.832;9.126;2022-12-07T00:22:27;6.97;;;5.83;;
19107;SDS011;9686;48.832;9.126;2022-12-07T00:24:52;6.83;;;5.93;;
19107;SDS011;9686;48.832;9.126;2022-12-07T00:27:18;7.27;;;6.50;;
19107;SDS011;9686;48.832;9.126;2022-12-07T00:29:43;8.20;;;5.60;;
19107;SDS011;9686;48.832;9.126;2022-12-07T00:32:08;7.73;;;6.07;;
19107;SDS011;9686;48.832;9.126;2022-12-07T00:34:34;10.33;;;6.63;;
19107;SDS011;9686;48.832;9.126;2022-12-07T00:36:59;9.33;;;6.83;;
19107;SDS011;9686;48.832;9.126;2022-12-07T00:39:24;8.30;;;6.90;;
19107;SDS011;9686;48.832;9.126;2022-12-07T00:41:49;8.07;;;6.53;;
19107;SDS011;9686;48.832;9.126;2022-12-07T00:44:15;9.13;;;6.90;;
19107;SDS011;9686;48.832;9.126;2022-12-07T00:46:40;8.17;;;6.90;;
19107;SDS011;9686;48.832;9.126;2022-12-07T00:49:05;9.10;;;7.07;;
19107;SDS011;9686;48.832;9.126;2022-12-07T00:56:26;11.27;;;6.87;;
19107;SDS011;9686;48.832;9.126;2022-12-07T00:58:57;9.03;;;6.90;;
19107;SDS011;9686;48.832;9.126;2022-12-07T01:01:24;9.00;;;6.70;;
19107;SDS011;9686;48.832;9.126;2022-12-07T01:03:52;10.07;;;7.47;;
19107;SDS011;9686;48.832;9.126;2022-12-07T01:06:18;11.23;;;6.77;;
19107;SDS011;9686;48.832;9.126;2022-12-07T01:08:45;8.27;;;6.87;;
19107;SDS011;9686;48.832;9.126;2022-12-07T01:11:14;9.00;;;7.00;;
19107;SDS011;9686;48.832;9.126;2022-12-07T01:13:42;7.93;;;6.70;;
19107;SDS011;9686;48.832;9.126;2022-12-07T01:16:08;8.37;;;7.17;;
19107;SDS011;9686;48.832;9.126;2022-12-07T01:18:36;11.17;;;7.70;;
19107;SDS011;9686;48.832;9.126;2022-12-07T01:23:38;8.83;;;7.60;;
19107;SDS011;9686;48.832;9.126;2022-12-07T01:26:05;8.47;;;7.13;;
19107;SDS011;9686;48.832;9.126;2022-12-07T01:28:32;9.73;;;7.57;;
19107;SDS011;9686;48.832;9.126;2022-12-07T01:30:59;9.57;;;7.30;;
19107;SDS011;9686;48.832;9.126;2022-12-07T01:33:30;10.23;;;7.47;;
19107;SDS011;9686;48.832;9.126;2022-12-07T01:36:00;11.83;;;8.80;;
19107;SDS011;9686;48.832;9.126;2022-12-07T01:38:30;8.13;;;6.80;;
19107;SDS011;9686;48.832;9.126;2022-12-07T01:40:57;12.10;;;8.13;;
19107;SDS011;9686;48.832;9.126;2022-12-07T01:43:23;8.73;;;7.23;;
19107;SDS011;9686;48.832;9.126;2022-12-07T01:45:50;10.10;;;6.80;;
19107;SDS011;9686;48.832;9.126;2022-12-07T01:48:16;8.67;;;6.70;;
19107;SDS011;9686;48.832;9.126;2022-12-07T01:50:45;7.63;;;6.10;;
19107;SDS011;9686;48.832;9.126;2022-12-07T01:53:13;8.03;;;6.37;;
19107;SDS011;9686;48.832;9.126;2022-12-07T01:55:40;9.40;;;7.10;;
19107;SDS011;9686;48.832;9.126;2022-12-07T01:58:09;8.17;;;6.20;;
19107;SDS011;9686;48.832;9.126;2022-12-07T02:00:36;8.70;;;7.10;;
19107;SDS011;9686;48.832;9.126;2022-12-07T02:03:07;8.07;;;6.40;;
19107;SDS011;9686;48.832;9.126;2022-12-07T02:05:37;7.90;;;6.37;;
19107;SDS011;9686;48.832;9.126;2022-12-07T02:08:05;10.00;;;6.97;;
19107;SDS011;9686;48.832;9.126;2022-12-07T02:10:31;9.53;;;6.20;;
19107;SDS011;9686;48.832;9.126;2022-12-07T02:13:01;8.53;;;6.30;;
19107;SDS011;9686;48.832;9.126;2022-12-07T02:15:45;9.40;;;7.03;;
19107;SDS011;9686;48.832;9.126;2022-12-07T02:21:07;8.77;;;6.53;;
19107;SDS011;9686;48.832;9.126;2022-12-07T02:26:35;9.47;;;6.47;;
19107;SDS011;9686;48.832;9.126;2022-12-07T02:31:33;8.00;;;6.10;;
19107;SDS011;9686;48.832;9.126;2022-12-07T02:34:07;8.37;;;6.30;;
19107;SDS011;9686;48.832;9.126;2022-12-07T02:36:38;7.27;;;5.63;;
19107;SDS011;9686;48.832;9.126;2022-12-07T02:39:10;8.03;;;6.20;;
19107;SDS011;9686;48.832;9.126;2022-12-07T02:41:44;8.30;;;6.17;;
19107;SDS011;9686;48.832;9.126;2022-12-07T02:44:16;10.73;;;6.20;;
19107;SDS011;9686;48.832;9.126;2022-12-07T02:46:55;8.17;;;6.60;;
19107;SDS011;9686;48.832;9.126;2022-12-07T02:49:33;7.87;;;6.20;;
19107;SDS011;9686;48.832;9.126;2022-12-07T02:51:58;7.67;;;6.17;;
19107;SDS011;9686;48.832;9.126;2022-12-07T02:54:24;8.20;;;6.00;;
19107;SDS011;9686;48.832;9.126;2022-12-07T02:56:57;7.37;;;5.73;;
19107;SDS011;9686;48.832;9.126;2022-12-07T03:07:49;7.33;;;6.17;;
19107;SDS011;9686;48.832;9.126;2022-12-07T03:13:00;7.33;;;6.10;;
19107;SDS011;9686;48.832;9.126;2022-12-07T03:15:46;6.97;;;5.70;;
19107;SDS011;9686;48.832;9.126;2022-12-07T03:18:21;11.67;;;6.20;;
19107;SDS011;9686;48.832;9.126;2022-12-07T03:20:49;8.20;;;5.53;;
19107;SDS011;9686;48.832;9.126;2022-12-07T03:23:18;7.73;;;6.10;;
19107;SDS011;9686;48.832;9.126;2022-12-07T03:25:47;7.80;;;6.00;;
19107;SDS011;9686;48.832;9.126;2022-12-07T03:28:16;7.90;;;6.17;;
19107;SDS011;9686;48.832;9.126;2022-12-07T03:33:25;8.60;;;6.30;;
19107;SDS011;9686;48.832;9.126;2022-12-07T03:35:52;9.90;;;6.73;;
19107;SDS011;9686;48.832;9.126;2022-12-07T03:38:27;8.50;;;6.07;;
19107;SDS011;9686;48.832;9.126;2022-12-07T03:41:01;9.43;;;7.00;;
19107;SDS011;9686;48.832;9.126;2022-12-07T03:43:35;10.90;;;7.20;;
19107;SDS011;9686;48.832;9.126;2022-12-07T03:51:43;7.67;;;6.13;;
19107;SDS011;9686;48.832;9.126;2022-12-07T03:54:15;9.27;;;7.20;;
19107;SDS011;9686;48.832;9.126;2022-12-07T03:56:46;9.27;;;6.27;;
19107;SDS011;9686;48.832;9.126;2022-12-07T03:59:13;6.70;;;5.70;;
19107;SDS011;9686;48.832;9.126;2022-12-07T04:01:44;9.87;;;6.67;;
19107;SDS011;9686;48.832;9.126;2022-12-07T04:04:15;9.67;;;6.60;;
19107;SDS011;9686;48.832;9.126;2022-12-07T04:06:41;11.67;;;7.13;;
19107;SDS011;9686;48.832;9.126;2022-12-07T04:09:07;10.97;;;7.27;;
19107;SDS011;9686;48.832;9.126;2022-12-07T04:11:32;9.33;;;7.03;;
19107;SDS011;9686;48.832;9.126;2022-12-07T04:13:57;11.37;;;8.17;;
19107;SDS011;9686;48.832;9.126;2022-12-07T04:16:41;8.90;;;7.30;;
19107;SDS011;9686;48.832;9.126;2022-12-07T04:19:06;10.33;;;7.33;;
19107;SDS011;9686;48.832;9.126;2022-12-07T04:21:32;9.33;;;7.30;;
19107;SDS011;9686;48.832;9.126;2022-12-07T04:23:57;9.80;;;7.20;;
19107;SDS011;9686;48.832;9.126;2022-12-07T04:26:22;9.47;;;7.37;;
19107;SDS011;9686;48.832;9.126;2022-12-07T04:28:47;9.33;;;7.10;;
19107;SDS011;9686;48.832;9.126;2022-12-07T04:31:13;8.37;;;6.13;;
19107;SDS011;9686;48.832;9.126;2022-12-07T04:33:38;9.93;;;6.97;;
19107;SDS011;9686;48.832;9.126;2022-12-07T04:36:03;9.23;;;6.00;;
19107;SDS011;9686;48.832;9.126;2022-12-07T04:38:29;6.70;;;5.13;;
19107;SDS011;9686;48.832;9.126;2022-12-07T04:40:54;8.57;;;5.90;;
19107;SDS011;9686;48.832;9.126;2022-12-07T04:43:20;7.50;;;5.80;;
19107;SDS011;9686;48.832;9.126;2022-12-07T04:45:46;7.27;;;4.80;;
19107;SDS011;9686;48.832;9.126;2022-12-07T04:48:12;5.13;;;4.33;;
19107;SDS011;9686;48.832;9.126;2022-12-07T04:50:37;6.67;;;4.37;;
19107;SDS011;9686;48.832;9.126;2022-12-07T04:53:03;6.13;;;4.67;;
19107;SDS011;9686;48.832;9.126;2022-12-07T04:55:28;5.63;;;4.30;;
19107;SDS011;9686;48.832;9.126;2022-12-07T04:57:54;6.63;;;4.40;;
19107;SDS011;9686;48.832;9.126;2022-12-07T05:00:19;5.03;;;4.00;;
19107;SDS011;9686;48.832;9.126;2022-12-07T05:02:44;5.80;;;4.03;;
19107;SDS011;9686;48.832;9.126;2022-12-07T05:05:10;4.33;;;3.93;;
19107;SDS011;9686;48.832;9.126;2022-12-07T05:07:35;5.00;;;4.13;;
19107;SDS011;9686;48.832;9.126;2022-12-07T05:10:00;6.97;;;5.00;;
19107;SDS011;9686;48.832;9.126;2022-12-07T05:12:26;6.40;;;4.93;;
19107;SDS011;9686;48.832;9.126;2022-12-07T05:14:51;7.60;;;5.67;;
19107;SDS011;9686;48.832;9.126;2022-12-07T05:17:16;8.03;;;5.70;;
19107;SDS011;9686;48.832;9.126;2022-12-07T05:19:42;7.00;;;5.50;;
19107;SDS011;9686;48.832;9.126;2022-12-07T05:22:07;7.97;;;5.40;;
19107;SDS011;9686;48.832;9.126;2022-12-07T05:24:32;6.40;;;5.20;;
19107;SDS011;9686;48.832;9.126;2022-12-07T05:26:58;6.80;;;5.23;;
19107;SDS011;9686;48.832;9.126;2022-12-07T05:29:23;8.07;;;5.73;;
19107;SDS011;9686;48.832;9.126;2022-12-07T05:31:48;11.37;;;5.70;;
19107;SDS011;9686;48.832;9.126;2022-12-07T05:34:13;10.73;;;6.03;;
19107;SDS011;9686;48.832;9.126;2022-12-07T05:36:39;8.97;;;6.27;;
19107;SDS011;9686;48.832;9.126;2022-12-07T05:39:04;8.30;;;5.43;;
19107;SDS011;9686;48.832;9.126;2022-12-07T05:41:30;8.70;;;5.60;;
19107;SDS011;9686;48.832;9.126;2022-12-07T05:44:14;7.67;;;5.90;;
19107;SDS011;9686;48.832;9.126;2022-12-07T05:46:39;7.83;;;6.23;;
19107;SDS011;9686;48.832;9.126;2022-12-07T05:49:05;9.30;;;5.83;;
19107;SDS011;9686;48.832;9.126;2022-12-07T05:51:30;9.63;;;5.93;;
19107;SDS011;9686;48.832;9.126;2022-12-07T05:53:56;9.67;;;6.03;;
19107;SDS011;9686;48.832;9.126;2022-12-07T05:56:21;9.03;;;5.67;;
19107;SDS011;9686;48.832;9.126;2022-12-07T05:58:47;7.47;;;5.47;;
19107;SDS011;9686;48.832;9.126;2022-12-07T06:01:31;10.20;;;6.23;;
19107;SDS011;9686;48.832;9.126;2022-12-07T06:03:56;9.47;;;6.33;;
19107;SDS011;9686;48.832;9.126;2022-12-07T06:06:21;7.67;;;5.47;;
19107;SDS011;9686;48.832;9.126;2022-12-07T06:08:47;9.30;;;6.30;;
19107;SDS011;9686;48.832;9.126;2022-12-07T06:11:12;8.73;;;6.13;;
19107;SDS011;9686;48.832;9.126;2022-12-07T06:13:57;8.17;;;5.43;;
19107;SDS011;9686;48.832;9.126;2022-12-07T06:16:22;7.63;;;5.53;;
19107;SDS011;9686;48.832;9.126;2022-12-07T06:18:48;7.80;;;5.53;;
19107;SDS011;9686;48.832;9.126;2022-12-07T06:21:13;7.80;;;5.90;;
19107;SDS011;9686;48.832;9.126;2022-12-07T06:23:39;7.33;;;5.83;;
19107;SDS011;9686;48.832;9.126;2022-12-07T06:26:04;7.70;;;5.73;;
19107;SDS011;9686;48.832;9.126;2022-12-07T06:28:29;8.87;;;5.87;;
19107;SDS011;9686;48.832;9.126;2022-12-07T06:30:58;9.83;;;5.70;;
19107;SDS011;9686;48.832;9.126;2022-12-07T06:33:25;7.63;;;5.43;;
19107;SDS011;9686;48.832;9.126;2022-12-07T06:35:51;7.03;;;5.27;;
19107;SDS011;9686;48.832;9.126;2022-12-07T06:38:16;8.77;;;6.00;;
19107;SDS011;9686;48.832;9.126;2022-12-07T06:40:41;7.13;;;5.30;;
19107;SDS011;9686;48.832;9.126;2022-12-07T06:43:07;11.33;;;6.20;;
19107;SDS011;9686;48.832;9.126;2022-12-07T06:45:33;8.90;;;5.80;;
19107;SDS011;9686;48.832;9.126;2022-12-07T06:47:58;9.43;;;6.07;;
19107;SDS011;9686;48.832;9.126;2022-12-07T06:50:23;7.00;;;5.20;;
19107;SDS011;9686;48.832;9.126;2022-12-07T06:52:48;8.07;;;5.17;;
19107;SDS011;9686;48.832;9.126;2022-12-07T06:55:16;9.83;;;4.93;;
19107;SDS011;9686;48.832;9.126;2022-12-07T06:57:41;8.23;;;5.17;;
19107;SDS011;9686;48.832;9.126;2022-12-07T07:00:06;8.33;;;5.33;;
19107;SDS011;9686;48.832;9.126;2022-12-07T07:02:32;11.60;;;5.43;;
19107;SDS011;9686;48.832;9.126;2022-12-07T07:04:58;10.07;;;4.97;;
19107;SDS011;9686;48.832;9.126;2022-12-07T07:07:23;9.87;;;5.77;;
19107;SDS011;9686;48.832;9.126;2022-12-07T07:09:48;6.53;;;5.00;;
19107;SDS011;9686;48.832;9.126;2022-12-07T07:12:13;7.27;;;4.90;;
19107;SDS011;9686;48.832;9.126;2022-12-07T07:14:39;7.30;;;4.50;;
19107;SDS011;9686;48.832;9.126;2022-12-07T07:17:04;10.20;;;5.20;;
19107;SDS011;9686;48.832;9.126;2022-12-07T07:19:29;7.27;;;4.10;;
19107;SDS011;9686;48.832;9.126;2022-12-07T07:21:55;6.97;;;4.80;;
19107;SDS011;9686;48.832;9.126;2022-12-07T07:24:20;10.73;;;4.40;;
19107;SDS011;9686;48.832;9.126;2022-12-07T07:26:45;6.70;;;5.30;;
19107;SDS011;9686;48.832;9.126;2022-12-07T07:29:11;8.43;;;4.43;;
19107;SDS011;9686;48.832;9.126;2022-12-07T07:31:36;6.60;;;5.17;;
19107;SDS011;9686;48.832;9.126;2022-12-07T07:34:02;6.70;;;4.60;;
19107;SDS011;9686;48.832;9.126;2022-12-07T07:36:27;6.83;;;4.50;;
19107;SDS011;9686;48.832;9.126;2022-12-07T07:38:52;5.57;;;4.47;;
19107;SDS011;9686;48.832;9.126;2022-12-07T07:41:18;6.00;;;4.50;;
19107;SDS011;9686;48.832;9.126;2022-12-07T07:43:43;7.47;;;5.30;;
19107;SDS011;9686;48.832;9.126;2022-12-07T07:46:08;6.87;;;4.67;;
19107;SDS011;9686;48.832;9.126;2022-12-07T07:48:34;6.23;;;4.87;;
19107;SDS011;9686;48.832;9.126;2022-12-07T07:50:59;5.20;;;3.93;;
19107;SDS011;9686;48.832;9.126;2022-12-07T07:53:24;5.90;;;4.23;;
19107;SDS011;9686;48.832;9.126;2022-12-07T07:55:51;7.93;;;4.50;;
19107;SDS011;9686;48.832;9.126;2022-12-07T07:58:17;6.80;;;4.77;;
19107;SDS011;9686;48.832;9.126;2022-12-07T08:00:42;7.33;;;4.70;;
19107;SDS011;9686;48.832;9.126;2022-12-07T08:03:08;6.30;;;4.30;;
19107;SDS011;9686;48.832;9.126;2022-12-07T08:05:33;6.20;;;4.20;;
19107;SDS011;9686;48.832;9.126;2022-12-07T08:07:58;5.73;;;4.63;;
19107;SDS011;9686;48.832;9.126;2022-12-07T08:10:24;7.73;;;4.80;;
19107;SDS011;9686;48.832;9.126;2022-12-07T08:12:49;5.60;;;4.17;;
19107;SDS011;9686;48.832;9.126;2022-12-07T08:15:33;7.80;;;4.73;;
19107;SDS011;9686;48.832;9.126;2022-12-07T08:17:58;5.87;;;4.77;;
19107;SDS011;9686;48.832;9.126;2022-12-07T08:20:24;5.47;;;4.13;;
19107;SDS011;9686;48.832;9.126;2022-12-07T08:22:49;6.77;;;4.03;;
19107;SDS011;9686;48.832;9.126;2022-12-07T08:25:15;6.53;;;4.47;;
19107;SDS011;9686;48.832;9.126;2022-12-07T08:27:40;6.17;;;4.87;;
19107;SDS011;9686;48.832;9.126;2022-12-07T08:30:05;5.20;;;3.97;;
19107;SDS011;9686;48.832;9.126;2022-12-07T08:32:31;6.20;;;4.70;;
19107;SDS011;9686;48.832;9.126;2022-12-07T08:34:56;5.97;;;4.27;;
19107;SDS011;9686;48.832;9.126;2022-12-07T08:37:22;6.50;;;4.10;;
19107;SDS011;9686;48.832;9.126;2022-12-07T08:39:47;9.03;;;4.90;;
19107;SDS011;9686;48.832;9.126;2022-12-07T08:42:12;7.23;;;4.63;;
19107;SDS011;9686;48.832;9.126;2022-12-07T08:44:38;8.03;;;4.87;;
19107;SDS011;9686;48.832;9.126;2022-12-07T08:47:05;6.33;;;4.13;;
19107;SDS011;9686;48.832;9.126;2022-12-07T08:49:33;8.90;;;5.27;;
19107;SDS011;9686;48.832;9.126;2022-12-07T08:52:03;5.00;;;4.30;;
19107;SDS011;9686;48.832;9.126;2022-12-07T08:54:30;6.93;;;4.60;;
19107;SDS011;9686;48.832;9.126;2022-12-07T08:56:55;7.67;;;5.10;;
19107;SDS011;9686;48.832;9.126;2022-12-07T08:59:21;6.37;;;4.67;;
19107;SDS011;9686;48.832;9.126;2022-12-07T09:01:47;5.70;;;4.17;;
19107;SDS011;9686;48.832;9.126;2022-12-07T09:04:13;7.50;;;4.40;;
19107;SDS011;9686;48.832;9.126;2022-12-07T09:06:38;7.47;;;4.60;;
19107;SDS011;9686;48.832;9.126;2022-12-07T09:09:03;6.87;;;4.57;;
19107;SDS011;9686;48.832;9.126;2022-12-07T09:11:29;7.07;;;4.27;;
19107;SDS011;9686;48.832;9.126;2022-12-07T09:13:55;5.37;;;3.73;;
19107;SDS011;9686;48.832;9.126;2022-12-07T09:16:20;5.63;;;4.37;;
19107;SDS011;9686;48.832;9.126;2022-12-07T09:18:46;5.33;;;4.03;;
19107;SDS011;9686;48.832;9.126;2022-12-07T09:21:11;6.03;;;4.13;;
19107;SDS011;9686;48.832;9.126;2022-12-07T09:23:36;5.53;;;3.60;;
19107;SDS011;9686;48.832;9.126;2022-12-07T09:26:02;4.90;;;3.63;;
19107;SDS011;9686;48.832;9.126;2022-12-07T09:28:30;4.37;;;3.20;;
19107;SDS011;9686;48.832;9.126;2022-12-07T09:30:55;5.20;;;3.50;;
19107;SDS011;9686;48.832;9.126;2022-12-07T09:33:21;6.60;;;3.77;;
19107;SDS011;9686;48.832;9.126;2022-12-07T09:35:46;5.73;;;3.50;;
19107;SDS011;9686;48.832;9.126;2022-12-07T09:38:14;7.47;;;4.30;;
19107;SDS011;9686;48.832;9.126;2022-12-07T09:40:40;4.93;;;3.60;;
19107;SDS011;9686;48.832;9.126;2022-12-07T09:43:11;6.93;;;3.67;;
19107;SDS011;9686;48.832;9.126;2022-12-07T09:45:38;4.50;;;3.30;;
19107;SDS011;9686;48.832;9.126;2022-12-07T09:48:04;3.63;;;3.00;;
19107;SDS011;9686;48.832;9.126;2022-12-07T09:50:30;4.73;;;3.50;;
19107;SDS011;9686;48.832;9.126;2022-12-07T09:53:01;5.10;;;3.67;;
19107;SDS011;9686;48.832;9.126;2022-12-07T09:55:33;4.80;;;3.10;;
19107;SDS011;9686;48.832;9.126;2022-12-07T09:58:01;5.07;;;3.67;;
19107;SDS011;9686;48.832;9.126;2022-12-07T10:00:26;4.80;;;3.30;;
19107;SDS011;9686;48.832;9.126;2022-12-07T10:05:24;4.87;;;3.37;;
19107;SDS011;9686;48.832;9.126;2022-12-07T10:07:55;4.00;;;3.30;;
19107;SDS011;9686;48.832;9.126;2022-12-07T10:10:25;4.47;;;3.30;;
19107;SDS011;9686;48.832;9.126;2022-12-07T10:12:53;4.37;;;3.07;;
19107;SDS011;9686;48.832;9.126;2022-12-07T10:15:40;5.90;;;3.00;;
19107;SDS011;9686;48.832;9.126;2022-12-07T10:18:53;4.37;;;3.20;;
19107;SDS011;9686;48.832;9.126;2022-12-07T10:23:34;7.50;;;3.60;;
19107;SDS011;9686;48.832;9.126;2022-12-07T10:26:18;4.80;;;3.30;;
19107;SDS011;9686;48.832;9.126;2022-12-07T10:28:46;4.73;;;3.50;;
19107;SDS011;9686;48.832;9.126;2022-12-07T10:31:15;9.13;;;6.33;;
19107;SDS011;9686;48.832;9.126;2022-12-07T10:33:53;5.37;;;3.80;;
19107;SDS011;9686;48.832;9.126;2022-12-07T10:41:25;3.80;;;2.77;;
19107;SDS011;9686;48.832;9.126;2022-12-07T10:43:51;3.70;;;2.27;;
19107;SDS011;9686;48.832;9.126;2022-12-07T10:51:50;4.13;;;1.90;;
19107;SDS011;9686;48.832;9.126;2022-12-07T11:00:23;2.33;;;1.83;;
19107;SDS011;9686;48.832;9.126;2022-12-07T11:03:03;2.53;;;1.80;;
19107;SDS011;9686;48.832;9.126;2022-12-07T11:08:37;3.07;;;1.90;;
19107;SDS011;9686;48.832;9.126;2022-12-07T11:11:14;2.83;;;1.80;;
19107;SDS011;9686;48.832;9.126;2022-12-07T11:16:55;1.87;;;1.47;;
19107;SDS011;9686;48.832;9.126;2022-12-07T11:25:29;2.50;;;2.20;;
19107;SDS011;9686;48.832;9.126;2022-12-07T11:33:47;3.20;;;2.90;;
19107;SDS011;9686;48.832;9.126;2022-12-07T11:36:30;4.00;;;2.37;;
19107;SDS011;9686;48.832;9.126;2022-12-07T11:39:02;3.50;;;2.70;;
19107;SDS011;9686;48.832;9.126;2022-12-07T11:41:36;3.27;;;2.63;;
19107;SDS011;9686;48.832;9.126;2022-12-07T11:44:07;5.07;;;2.97;;
19107;SDS011;9686;48.832;9.126;2022-12-07T11:49:43;5.00;;;3.50;;
19107;SDS011;9686;48.832;9.126;2022-12-07T11:53:02;5.60;;;4.27;;
19107;SDS011;9686;48.832;9.126;2022-12-07T11:55:42;5.37;;;3.87;;
19107;SDS011;9686;48.832;9.126;2022-12-07T12:03:58;7.43;;;3.50;;
19107;SDS011;9686;48.832;9.126;2022-12-07T12:06:30;5.23;;;3.97;;
19107;SDS011;9686;48.832;9.126;2022-12-07T12:11:32;5.43;;;4.47;;
19107;SDS011;9686;48.832;9.126;2022-12-07T12:20:00;5.20;;;3.50;;
19107;SDS011;9686;48.832;9.126;2022-12-07T12:22:35;6.07;;;4.17;;
19107;SDS011;9686;48.832;9.126;2022-12-07T12:25:05;5.40;;;4.67;;
19107;SDS011;9686;48.832;9.126;2022-12-07T12:27:36;7.00;;;4.70;;
19107;SDS011;9686;48.832;9.126;2022-12-07T12:30:05;6.83;;;4.77;;
19107;SDS011;9686;48.832;9.126;2022-12-07T12:32:48;6.57;;;4.33;;
19107;SDS011;9686;48.832;9.126;2022-12-07T12:35:33;5.27;;;4.23;;
19107;SDS011;9686;48.832;9.126;2022-12-07T12:40:47;7.50;;;4.57;;
19107;SDS011;9686;48.832;9.126;2022-12-07T12:43:39;5.70;;;4.83;;
19107;SDS011;9686;48.832;9.126;2022-12-07T12:51:43;6.20;;;4.90;;
19107;SDS011;9686;48.832;9.126;2022-12-07T12:54:19;5.10;;;4.07;;
19107;SDS011;9686;48.832;9.126;2022-12-07T13:02:21;5.27;;;3.73;;
19107;SDS011;9686;48.832;9.126;2022-12-07T13:04:50;5.00;;;3.80;;
19107;SDS011;9686;48.832;9.126;2022-12-07T13:15:35;8.10;;;4.70;;
19107;SDS011;9686;48.832;9.126;2022-12-07T13:29:11;6.97;;;4.37;;
19107;SDS011;9686;48.832;9.126;2022-12-07T13:39:59;6.67;;;5.37;;
19107;SDS011;9686;48.832;9.126;2022-12-07T13:42:41;6.30;;;5.00;;
19107;SDS011;9686;48.832;9.126;2022-12-07T13:48:24;7.73;;;5.37;;
19107;SDS011;9686;48.832;9.126;2022-12-07T13:50:56;7.30;;;5.23;;
19107;SDS011;9686;48.832;9.126;2022-12-07T13:53:23;8.00;;;5.37;;
19107;SDS011;9686;48.832;9.126;2022-12-07T13:55:48;10.00;;;5.97;;
19107;SDS011;9686;48.832;9.126;2022-12-07T13:58:14;7.30;;;5.60;;
19107;SDS011;9686;48.832;9.126;2022-12-07T14:00:39;8.43;;;6.00;;
19107;SDS011;9686;48.832;9.126;2022-12-07T14:05:37;11.00;;;6.33;;
19107;SDS011;9686;48.832;9.126;2022-12-07T14:08:21;9.10;;;6.67;;
19107;SDS011;9686;48.832;9.126;2022-12-07T14:16:16;10.17;;;6.53;;
19107;SDS011;9686;48.832;9.126;2022-12-07T14:18:48;9.53;;;6.10;;
19107;SDS011;9686;48.832;9.126;2022-12-07T14:21:15;7.17;;;5.10;;
19107;SDS011;9686;48.832;9.126;2022-12-07T14:23:43;8.83;;;5.07;;
19107;SDS011;9686;48.832;9.126;2022-12-07T14:26:18;6.80;;;4.27;;
19107;SDS011;9686;48.832;9.126;2022-12-07T14:28:45;6.57;;;4.30;;
19107;SDS011;9686;48.832;9.126;2022-12-07T14:31:15;5.90;;;4.27;;
19107;SDS011;9686;48.832;9.126;2022-12-07T14:33:42;7.07;;;4.30;;
19107;SDS011;9686;48.832;9.126;2022-12-07T14:36:11;7.60;;;4.53;;
19107;SDS011;9686;48.832;9.126;2022-12-07T14:38:38;6.30;;;4.53;;
19107;SDS011;9686;48.832;9.126;2022-12-07T14:41:05;8.13;;;5.80;;
19107;SDS011;9686;48.832;9.126;2022-12-07T14:43:58;7.30;;;4.80;;
19107;SDS011;9686;48.832;9.126;2022-12-07T14:46:25;7.87;;;5.13;;
19107;SDS011;9686;48.832;9.126;2022-12-07T14:48:50;7.87;;;6.10;;
19107;SDS011;9686;48.832;9.126;2022-12-07T14:51:15;7.43;;;5.53;;
19107;SDS011;9686;48.832;9.126;2022-12-07T14:53:42;8.17;;;5.37;;
19107;SDS011;9686;48.832;9.126;2022-12-07T14:56:14;7.53;;;5.13;;
19107;SDS011;9686;48.832;9.126;2022-12-07T14:58:39;7.83;;;5.00;;
19107;SDS011;9686;48.832;9.126;2022-12-07T15:01:05;8.80;;;6.07;;
19107;SDS011;9686;48.832;9.126;2022-12-07T15:03:30;9.13;;;6.50;;
19107;SDS011;9686;48.832;9.126;2022-12-07T15:05:55;8.80;;;5.83;;
19107;SDS011;9686;48.832;9.126;2022-12-07T15:08:21;9.47;;;6.50;;
19107;SDS011;9686;48.832;9.126;2022-12-07T15:10:46;7.07;;;5.43;;
19107;SDS011;9686;48.832;9.126;2022-12-07T15:13:11;7.40;;;5.43;;
19107;SDS011;9686;48.832;9.126;2022-12-07T15:15:55;7.93;;;5.70;;
19107;SDS011;9686;48.832;9.126;2022-12-07T15:18:21;8.90;;;5.67;;
19107;SDS011;9686;48.832;9.126;2022-12-07T15:20:47;8.37;;;5.87;;
19107;SDS011;9686;48.832;9.126;2022-12-07T15:23:13;10.83;;;7.30;;
19107;SDS011;9686;48.832;9.126;2022-12-07T15:25:42;9.17;;;6.40;;
19107;SDS011;9686;48.832;9.126;2022-12-07T15:28:09;8.87;;;6.20;;
19107;SDS011;9686;48.832;9.126;2022-12-07T15:30:34;11.90;;;7.43;;
19107;SDS011;9686;48.832;9.126;2022-12-07T15:33:02;11.87;;;7.00;;
19107;SDS011;9686;48.832;9.126;2022-12-07T15:35:27;8.57;;;6.13;;
19107;SDS011;9686;48.832;9.126;2022-12-07T15:37:53;8.60;;;6.40;;
19107;SDS011;9686;48.832;9.126;2022-12-07T15:40:18;8.33;;;6.43;;
19107;SDS011;9686;48.832;9.126;2022-12-07T15:42:43;10.47;;;6.93;;
19107;SDS011;9686;48.832;9.126;2022-12-07T15:45:09;9.57;;;6.67;;
19107;SDS011;9686;48.832;9.126;2022-12-07T15:47:38;10.70;;;7.20;;
19107;SDS011;9686;48.832;9.126;2022-12-07T15:50:06;11.57;;;6.60;;
19107;SDS011;9686;48.832;9.126;2022-12-07T15:52:41;12.17;;;6.43;;
19107;SDS011;9686;48.832;9.126;2022-12-07T15:55:07;10.67;;;6.50;;
19107;SDS011;9686;48.832;9.126;2022-12-07T15:57:34;12.07;;;7.13;;
19107;SDS011;9686;48.832;9.126;2022-12-07T16:00:02;10.03;;;6.67;;
19107;SDS011;9686;48.832;9.126;2022-12-07T16:02:28;11.53;;;7.73;;
19107;SDS011;9686;48.832;9.126;2022-12-07T16:04:53;16.67;;;8.20;;
19107;SDS011;9686;48.832;9.126;2022-12-07T16:07:19;12.40;;;7.37;;
19107;SDS011;9686;48.832;9.126;2022-12-07T16:09:45;9.87;;;6.90;;
19107;SDS011;9686;48.832;9.126;2022-12-07T16:12:11;11.80;;;8.30;;
19107;SDS011;9686;48.832;9.126;2022-12-07T16:14:38;13.23;;;8.00;;
19107;SDS011;9686;48.832;9.126;2022-12-07T16:17:04;11.43;;;7.97;;
19107;SDS011;9686;48.832;9.126;2022-12-07T16:19:30;10.97;;;6.60;;
19107;SDS011;9686;48.832;9.126;2022-12-07T16:21:56;12.60;;;8.13;;
19107;SDS011;9686;48.832;9.126;2022-12-07T16:24:21;16.10;;;7.57;;
19107;SDS011;9686;48.832;9.126;2022-12-07T16:26:46;14.13;;;7.70;;
19107;SDS011;9686;48.832;9.126;2022-12-07T16:29:12;9.70;;;7.27;;
19107;SDS011;9686;48.832;9.126;2022-12-07T16:31:38;10.07;;;7.20;;
19107;SDS011;9686;48.832;9.126;2022-12-07T16:34:04;11.03;;;7.10;;
19107;SDS011;9686;48.832;9.126;2022-12-07T16:36:30;12.70;;;8.07;;
19107;SDS011;9686;48.832;9.126;2022-12-07T16:38:55;12.03;;;8.90;;
19107;SDS011;9686;48.832;9.126;2022-12-07T16:41:23;12.97;;;9.37;;
19107;SDS011;9686;48.832;9.126;2022-12-07T16:43:49;11.97;;;8.47;;
19107;SDS011;9686;48.832;9.126;2022-12-07T16:46:14;11.30;;;7.47;;
19107;SDS011;9686;48.832;9.126;2022-12-07T16:48:40;13.03;;;8.30;;
19107;SDS011;9686;48.832;9.126;2022-12-07T16:51:07;12.33;;;9.03;;
19107;SDS011;9686;48.832;9.126;2022-12-07T16:53:34;12.13;;;8.03;;
19107;SDS011;9686;48.832;9.126;2022-12-07T16:56:00;12.73;;;7.47;;
19107;SDS011;9686;48.832;9.126;2022-12-07T16:58:26;11.70;;;8.00;;
19107;SDS011;9686;48.832;9.126;2022-12-07T17:00:52;13.40;;;8.90;;
19107;SDS011;9686;48.832;9.126;2022-12-07T17:03:17;10.83;;;8.10;;
19107;SDS011;9686;48.832;9.126;2022-12-07T17:05:43;11.30;;;7.93;;
19107;SDS011;9686;48.832;9.126;2022-12-07T17:08:12;10.10;;;6.83;;
19107;SDS011;9686;48.832;9.126;2022-12-07T17:10:44;11.17;;;7.27;;
19107;SDS011;9686;48.832;9.126;2022-12-07T17:13:10;11.13;;;7.90;;
19107;SDS011;9686;48.832;9.126;2022-12-07T17:15:56;12.37;;;7.10;;
19107;SDS011;9686;48.832;9.126;2022-12-07T17:18:22;9.57;;;6.57;;
19107;SDS011;9686;48.832;9.126;2022-12-07T17:20:47;9.20;;;6.33;;
19107;SDS011;9686;48.832;9.126;2022-12-07T17:23:12;10.63;;;5.90;;
19107;SDS011;9686;48.832;9.126;2022-12-07T17:25:38;10.43;;;6.73;;
19107;SDS011;9686;48.832;9.126;2022-12-07T17:28:03;9.63;;;6.50;;